createdAt,value
2019-03-30T00:01:52.009Z,58.10
2019-03-30T00:04:23.335Z,55.97
2019-03-30T00:06:54.498Z,54.80
2019-03-30T00:09:25.816Z,59.33
2019-03-30T00:11:58.001Z,58.20
2019-03-30T00:14:29.315Z,57.70
2019-03-30T00:17:00.425Z,52.20
2019-03-30T00:19:35.069Z,51.23
2019-03-30T00:22:04.580Z,51.07
2019-03-30T00:24:36.311Z,57.07
2019-03-30T00:27:07.619Z,68.57
2019-03-30T00:29:38.822Z,75.70
2019-03-30T00:32:10.349Z,66.63
2019-03-30T00:34:41.505Z,68.47
2019-03-30T00:37:12.901Z,71.70
2019-03-30T00:39:44.003Z,73.53
2019-03-30T00:42:15.204Z,79.70
2019-03-30T00:44:46.376Z,77.77
2019-03-30T00:47:17.559Z,82.57
2019-03-30T00:49:50.125Z,83.67
2019-03-30T00:52:21.551Z,86.70
2019-03-30T00:54:52.851Z,84.80
2019-03-30T00:57:23.995Z,81.37
2019-03-30T00:59:55.170Z,82.20
2019-03-30T01:02:26.364Z,86.50
2019-03-30T01:04:57.534Z,88.17
2019-03-30T01:07:28.790Z,86.20
2019-03-30T01:09:59.985Z,85.80
2019-03-30T01:12:31.147Z,83.80
2019-03-30T01:15:02.389Z,87.87
2019-03-30T01:17:33.590Z,92.97
2019-03-30T01:20:05.448Z,101.77
2019-03-30T01:22:36.713Z,103.37
2019-03-30T01:25:08.828Z,97.80
2019-03-30T01:27:40.110Z,96.03
2019-03-30T01:30:22.420Z,85.77
2019-03-30T01:32:44.799Z,86.23
2019-03-30T01:35:16.941Z,90.03
2019-03-30T01:37:48.434Z,98.60
2019-03-30T01:40:19.704Z,101.27
2019-03-30T01:42:50.821Z,102.53
2019-03-30T01:45:21.968Z,101.47
2019-03-30T01:47:53.234Z,100.20
2019-03-30T01:50:24.449Z,94.67
2019-03-30T01:52:55.769Z,97.00
2019-03-30T01:55:26.928Z,94.17
2019-03-30T01:57:58.044Z,97.00
2019-03-30T02:00:29.230Z,93.37
2019-03-30T02:03:00.570Z,91.47
2019-03-30T02:05:31.719Z,83.80
2019-03-30T02:08:02.880Z,83.90
2019-03-30T02:10:44.180Z,82.30
2019-03-30T02:13:16.134Z,70.50
2019-03-30T02:15:47.378Z,78.47
2019-03-30T02:18:18.628Z,85.67
2019-03-30T02:20:50.331Z,83.47
2019-03-30T02:23:21.744Z,82.50
2019-03-30T02:25:53.183Z,87.03
2019-03-30T02:28:24.450Z,92.77
2019-03-30T02:30:55.661Z,96.40
2019-03-30T02:33:26.818Z,99.87
2019-03-30T02:35:57.980Z,99.23
2019-03-30T02:38:29.501Z,100.93
2019-03-30T02:41:00.679Z,98.83
2019-03-30T02:43:31.907Z,95.97
2019-03-30T02:46:03.120Z,94.30
2019-03-30T02:48:35.092Z,95.27
2019-03-30T02:51:06.596Z,97.43
2019-03-30T02:53:37.755Z,99.13
2019-03-30T02:56:09.080Z,95.57
2019-03-30T02:58:40.196Z,100.50
2019-03-30T03:01:11.709Z,102.70
2019-03-30T03:03:43.196Z,97.90
2019-03-30T03:06:14.649Z,99.87
2019-03-30T03:08:45.718Z,102.40
2019-03-30T03:11:16.999Z,96.97
2019-03-30T03:13:48.360Z,97.83
2019-03-30T03:16:19.547Z,102.20
2019-03-30T03:18:50.784Z,106.53
2019-03-30T03:21:22.193Z,99.00
2019-03-30T03:23:53.373Z,97.60
2019-03-30T03:26:24.602Z,99.13
2019-03-30T03:28:55.980Z,99.43
2019-03-30T03:31:27.571Z,103.83
2019-03-30T03:33:59.050Z,107.77
2019-03-30T03:36:30.311Z,111.17
2019-03-30T03:39:01.540Z,114.67
2019-03-30T03:41:32.660Z,110.03
2019-03-30T03:44:03.895Z,110.97
2019-03-30T03:46:35.180Z,111.03
2019-03-30T03:49:06.515Z,103.40
2019-03-30T03:51:38.072Z,105.23
2019-03-30T03:54:09.409Z,102.30
2019-03-30T03:56:41.673Z,110.83
2019-03-30T03:59:14.409Z,112.13
2019-03-30T04:01:47.005Z,112.53
2019-03-30T04:04:19.731Z,106.70
2019-03-30T04:06:53.379Z,107.30
2019-03-30T04:09:27.680Z,102.27
2019-03-30T04:12:01.040Z,98.67
2019-03-30T04:14:34.439Z,96.03
2019-03-30T04:17:05.655Z,92.17
2019-03-30T04:19:36.814Z,91.13
2019-03-30T04:22:08.080Z,95.97
2019-03-30T04:24:39.429Z,97.83
2019-03-30T04:27:10.686Z,98.57
2019-03-30T04:29:41.846Z,96.87
2019-03-30T04:32:13.045Z,101.30
2019-03-30T04:34:44.199Z,109.00
2019-03-30T04:37:15.401Z,117.97
2019-03-30T04:39:46.919Z,128.03
2019-03-30T04:42:18.324Z,135.50
2019-03-30T04:44:49.614Z,137.67
2019-03-30T04:47:21.014Z,136.33
2019-03-30T04:49:52.301Z,124.57
2019-03-30T04:52:23.685Z,117.60
2019-03-30T04:54:54.999Z,120.13
2019-03-30T04:57:26.794Z,118.10
2019-03-30T04:59:58.324Z,110.60
2019-03-30T05:02:29.612Z,108.10
2019-03-30T05:05:01.570Z,108.50
2019-03-30T05:07:32.716Z,99.87
2019-03-30T05:10:04.488Z,96.73
2019-03-30T05:12:36.114Z,99.30
2019-03-30T05:15:07.932Z,99.43
2019-03-30T05:17:47.370Z,102.63
2019-03-30T05:20:12.510Z,97.27
2019-03-30T05:22:43.764Z,96.13
2019-03-30T05:25:15.030Z,92.03
2019-03-30T05:27:46.359Z,83.73
2019-03-30T05:30:17.774Z,74.77
2019-03-30T05:32:49.585Z,74.10
2019-03-30T05:35:21.007Z,65.73
2019-03-30T05:37:52.495Z,64.93
2019-03-30T05:40:24.112Z,63.93
2019-03-30T05:42:55.634Z,62.07
2019-03-30T05:45:27.045Z,63.43
2019-03-30T05:47:58.524Z,64.10
2019-03-30T05:50:30.292Z,60.43
2019-03-30T05:53:01.630Z,58.03
2019-03-30T05:55:32.862Z,58.47
2019-03-30T05:58:04.165Z,62.97
2019-03-30T06:00:35.793Z,58.57
2019-03-30T06:03:07.189Z,56.17
2019-03-30T06:05:38.584Z,51.97
2019-03-30T06:08:10.155Z,53.23
2019-03-30T06:10:41.363Z,52.97
2019-03-30T06:13:12.871Z,52.70
2019-03-30T06:15:44.463Z,52.60
2019-03-30T06:18:15.724Z,50.50
2019-03-30T06:20:47.114Z,46.63
2019-03-30T06:23:18.360Z,48.70
2019-03-30T06:25:49.732Z,50.03
2019-03-30T06:28:20.971Z,49.57
2019-03-30T06:30:52.230Z,48.33
2019-03-30T06:33:23.447Z,47.53
2019-03-30T06:35:54.732Z,45.97
2019-03-30T06:38:26.008Z,45.73
2019-03-30T06:40:57.323Z,45.00
2019-03-30T06:43:28.704Z,47.83
2019-03-30T06:45:59.785Z,47.23
2019-03-30T06:48:31.018Z,45.93
2019-03-30T06:51:02.210Z,46.63
2019-03-30T06:53:33.408Z,45.13
2019-03-30T06:56:04.630Z,46.33
2019-03-30T06:58:35.808Z,44.60
2019-03-30T07:01:07.458Z,45.67
2019-03-30T07:03:38.908Z,45.60
2019-03-30T07:06:10.335Z,42.70
2019-03-30T07:08:44.084Z,44.83
2019-03-30T07:11:21.429Z,44.47
2019-03-30T07:13:49.274Z,44.83
2019-03-30T07:16:20.606Z,44.03
2019-03-30T07:18:53.863Z,43.40
2019-03-30T07:21:25.064Z,42.67
2019-03-30T07:23:56.178Z,44.13
2019-03-30T07:26:27.420Z,44.83
2019-03-30T07:28:58.567Z,47.27
2019-03-30T07:31:29.894Z,45.93
2019-03-30T07:34:01.158Z,44.00
2019-03-30T07:36:32.438Z,46.40
2019-03-30T07:39:04.448Z,45.23
2019-03-30T07:41:35.679Z,44.87
2019-03-30T07:44:08.708Z,44.77
2019-03-30T07:46:39.917Z,43.77
2019-03-30T07:49:11.134Z,44.87
2019-03-30T07:51:42.278Z,44.50
2019-03-30T07:54:13.541Z,43.33
2019-03-30T07:56:44.711Z,44.97
2019-03-30T07:59:15.991Z,45.40
2019-03-30T08:01:47.350Z,45.37
2019-03-30T08:04:18.484Z,44.93
2019-03-30T08:06:49.770Z,46.40
2019-03-30T08:09:21.449Z,46.87
2019-03-30T08:11:52.809Z,46.90
2019-03-30T08:14:24.129Z,46.53
2019-03-30T08:16:55.498Z,47.00
2019-03-30T08:19:26.761Z,46.27
2019-03-30T08:21:58.054Z,47.30
2019-03-30T08:24:29.220Z,46.73
2019-03-30T08:27:00.539Z,45.97
2019-03-30T08:29:31.875Z,44.80
2019-03-30T08:32:03.015Z,46.23
2019-03-30T08:34:34.253Z,46.30
2019-03-30T08:37:05.684Z,44.43
2019-03-30T08:39:36.745Z,45.40
2019-03-30T08:42:08.030Z,44.97
2019-03-30T08:44:39.234Z,44.80
2019-03-30T08:47:10.384Z,42.33
2019-03-30T08:49:41.488Z,40.90
2019-03-30T08:52:12.764Z,43.20
2019-03-30T08:54:44.055Z,41.37
2019-03-30T08:57:15.313Z,41.33
2019-03-30T08:59:46.638Z,41.90
2019-03-30T09:02:17.859Z,40.57
2019-03-30T09:04:49.180Z,40.23
2019-03-30T09:07:20.491Z,39.80
2019-03-30T09:09:52.084Z,40.13
2019-03-30T09:12:23.434Z,38.73
2019-03-30T09:14:54.710Z,39.23
2019-03-30T09:17:26.024Z,41.60
2019-03-30T09:19:57.204Z,39.03
2019-03-30T09:22:28.559Z,35.77
2019-03-30T09:24:59.864Z,31.47
2019-03-30T09:27:31.221Z,33.73
2019-03-30T09:30:02.504Z,33.00
2019-03-30T09:32:33.664Z,31.97
2019-03-30T09:35:05.281Z,30.13
2019-03-30T09:37:36.643Z,26.73
2019-03-30T09:40:08.848Z,26.30
2019-03-30T09:42:40.414Z,26.73
2019-03-30T09:45:11.964Z,25.27
2019-03-30T09:47:43.203Z,27.23
2019-03-30T09:50:14.898Z,26.67
2019-03-30T09:52:46.232Z,28.07
2019-03-30T09:55:17.540Z,27.20
2019-03-30T09:57:48.944Z,27.13
2019-03-30T10:00:20.420Z,26.87
2019-03-30T10:02:51.678Z,27.37
2019-03-30T10:05:22.975Z,28.60
2019-03-30T10:07:54.303Z,26.20
2019-03-30T10:10:25.843Z,26.50
2019-03-30T10:12:57.202Z,26.17
2019-03-30T10:15:28.468Z,25.40
2019-03-30T10:17:59.750Z,23.27
2019-03-30T10:20:31.007Z,22.13
2019-03-30T10:23:02.360Z,23.93
2019-03-30T10:25:33.723Z,19.40
2019-03-30T10:28:05.017Z,24.23
2019-03-30T10:30:36.410Z,26.03
2019-03-30T10:33:07.568Z,25.77
2019-03-30T10:35:39.010Z,26.20
2019-03-30T10:38:10.305Z,27.87
2019-03-30T10:40:41.505Z,29.13
2019-03-30T10:43:12.715Z,26.40
2019-03-30T10:45:43.940Z,27.90
2019-03-30T10:48:15.238Z,27.27
2019-03-30T10:50:46.451Z,28.57
2019-03-30T10:53:17.824Z,28.87
2019-03-30T10:55:49.398Z,26.83
2019-03-30T10:58:20.697Z,28.00
2019-03-30T11:00:51.959Z,28.33
2019-03-30T11:03:23.185Z,25.77
2019-03-30T11:05:54.563Z,29.67
2019-03-30T11:08:25.728Z,29.33
2019-03-30T11:10:56.850Z,30.33
2019-03-30T11:13:28.148Z,30.13
2019-03-30T11:15:59.337Z,31.03
2019-03-30T11:18:30.541Z,22.07
2019-03-30T11:21:01.885Z,23.87
2019-03-30T11:23:33.354Z,22.63
2019-03-30T11:26:04.638Z,25.40
2019-03-30T11:28:35.899Z,25.30
2019-03-30T11:31:07.175Z,24.67
2019-03-30T11:33:38.423Z,26.10
2019-03-30T11:36:09.794Z,24.90
2019-03-30T11:38:41.157Z,21.77
2019-03-30T11:41:12.429Z,24.17
2019-03-30T11:43:43.643Z,23.83
2019-03-30T11:46:14.883Z,23.23
2019-03-30T11:48:46.329Z,131.93
2019-03-30T11:51:17.718Z,42.03
2019-03-30T11:53:48.950Z,66.97
2019-03-30T11:56:20.207Z,25.43
2019-03-30T11:58:51.739Z,22.83
2019-03-30T12:01:23.277Z,24.37
2019-03-30T12:03:54.553Z,22.00
2019-03-30T12:06:25.936Z,21.53
2019-03-30T12:08:58.427Z,21.53
2019-03-30T12:11:30.113Z,20.60
2019-03-30T12:14:01.629Z,19.63
2019-03-30T12:16:32.963Z,20.17
2019-03-30T12:19:04.518Z,18.07
2019-03-30T12:21:35.790Z,18.70
2019-03-30T12:24:07.085Z,19.40
2019-03-30T12:26:38.413Z,18.03
2019-03-30T12:29:09.766Z,20.37
2019-03-30T12:31:40.864Z,18.17
2019-03-30T12:34:13.189Z,17.17
2019-03-30T12:36:44.564Z,16.17
2019-03-30T12:39:15.755Z,16.83
2019-03-30T12:41:47.196Z,16.47
2019-03-30T12:44:18.538Z,16.97
2019-03-30T12:46:49.850Z,17.83
2019-03-30T12:49:23.226Z,17.40
2019-03-30T12:51:54.440Z,17.97
2019-03-30T12:54:25.542Z,16.97
2019-03-30T12:56:57.084Z,16.90
2019-03-30T12:59:30.252Z,17.00
2019-03-30T13:02:01.448Z,17.13
2019-03-30T13:04:32.614Z,16.87
2019-03-30T13:07:03.810Z,15.97
2019-03-30T13:09:35.308Z,17.13
2019-03-30T13:12:06.704Z,17.57
2019-03-30T13:14:37.784Z,17.13
2019-03-30T13:17:09.144Z,17.97
2019-03-30T13:19:40.688Z,15.87
2019-03-30T13:22:12.105Z,19.27
2019-03-30T13:24:43.355Z,16.10
2019-03-30T13:27:15.242Z,18.23
2019-03-30T13:29:46.363Z,17.77
2019-03-30T13:32:17.779Z,18.17
2019-03-30T13:34:49.055Z,18.33
2019-03-30T13:37:22.257Z,17.30
2019-03-30T13:39:53.365Z,18.47
2019-03-30T13:42:24.480Z,22.17
2019-03-30T13:44:55.678Z,56.07
2019-03-30T13:47:27.017Z,18.67
2019-03-30T13:49:58.625Z,47.63
2019-03-30T13:52:29.782Z,24.37
2019-03-30T13:55:01.041Z,54.97
2019-03-30T13:57:32.168Z,18.63
2019-03-30T14:00:03.411Z,18.93
2019-03-30T14:02:34.534Z,18.43
2019-03-30T14:05:06.710Z,19.57
2019-03-30T14:07:38.074Z,20.47
2019-03-30T14:10:10.688Z,19.43
2019-03-30T14:12:41.931Z,18.80
2019-03-30T14:15:13.308Z,19.20
2019-03-30T14:17:44.516Z,20.73
2019-03-30T14:20:15.929Z,18.00
2019-03-30T14:22:47.098Z,17.73
2019-03-30T14:25:18.651Z,18.47
2019-03-30T14:27:49.832Z,21.83
2019-03-30T14:30:21.171Z,17.43
2019-03-30T14:32:52.466Z,19.23
2019-03-30T14:35:23.601Z,17.03
2019-03-30T14:37:55.776Z,15.93
2019-03-30T14:40:27.094Z,15.17
2019-03-30T14:42:58.470Z,17.40
2019-03-30T14:45:29.689Z,16.27
2019-03-30T14:48:00.985Z,20.00
2019-03-30T14:50:32.259Z,18.40
2019-03-30T14:53:03.442Z,16.87
2019-03-30T14:55:34.833Z,15.67
2019-03-30T14:58:06.104Z,16.03
2019-03-30T15:00:37.576Z,15.80
2019-03-30T15:03:09.119Z,16.13
2019-03-30T15:05:40.340Z,16.17
2019-03-30T15:08:11.668Z,15.77
2019-03-30T15:10:42.917Z,14.17
2019-03-30T15:13:14.271Z,15.33
2019-03-30T15:15:45.674Z,16.57
2019-03-30T15:18:17.019Z,15.63
2019-03-30T15:20:48.378Z,15.73
2019-03-30T15:23:19.590Z,15.47
2019-03-30T15:25:50.804Z,14.60
2019-03-30T15:28:22.034Z,15.37
2019-03-30T15:30:53.336Z,14.47
2019-03-30T15:33:24.537Z,15.47
2019-03-30T15:35:55.683Z,14.20
2019-03-30T15:38:26.798Z,14.30
2019-03-30T15:40:57.905Z,14.63
2019-03-30T15:43:38.247Z,14.43
2019-03-30T15:46:02.165Z,14.57
2019-03-30T15:48:33.390Z,15.23
2019-03-30T15:51:04.762Z,14.60
2019-03-30T15:53:36.228Z,14.70
2019-03-30T15:56:07.581Z,14.27
2019-03-30T15:58:39.839Z,14.53
2019-03-30T16:01:11.274Z,14.37
2019-03-30T16:03:42.462Z,14.90
2019-03-30T16:06:13.727Z,13.57
2019-03-30T16:08:44.908Z,14.37
2019-03-30T16:11:16.213Z,13.70
2019-03-30T16:13:47.512Z,14.23
2019-03-30T16:16:18.800Z,14.23
2019-03-30T16:18:50.272Z,14.83
2019-03-30T16:21:21.597Z,15.40
2019-03-30T16:23:52.895Z,15.40
2019-03-30T16:26:24.259Z,14.20
2019-03-30T16:28:55.380Z,15.33
2019-03-30T16:31:27.144Z,14.20
2019-03-30T16:33:58.439Z,14.40
2019-03-30T16:36:29.699Z,14.33
2019-03-30T16:39:01.042Z,14.33
2019-03-30T16:41:32.124Z,14.00
2019-03-30T16:44:03.474Z,14.00
2019-03-30T16:46:34.599Z,14.73
2019-03-30T16:49:05.768Z,14.50
2019-03-30T16:51:36.886Z,14.83
2019-03-30T16:54:08.360Z,17.07
2019-03-30T16:56:39.508Z,15.07
2019-03-30T16:59:13.737Z,15.50
2019-03-30T17:01:43.899Z,14.90
2019-03-30T17:04:15.058Z,15.77
2019-03-30T17:06:46.230Z,16.83
2019-03-30T17:09:17.362Z,16.57
2019-03-30T17:11:48.515Z,17.53
2019-03-30T17:14:19.738Z,18.33
2019-03-30T17:16:50.887Z,17.53
2019-03-30T17:19:22.038Z,18.77
2019-03-30T17:21:53.209Z,17.83
2019-03-30T17:24:24.389Z,18.93
2019-03-30T17:26:55.508Z,20.03
2019-03-30T17:29:26.790Z,19.83
2019-03-30T17:31:57.988Z,20.17
2019-03-30T17:34:29.604Z,21.73
2019-03-30T17:37:00.790Z,21.67
2019-03-30T17:39:31.970Z,22.40
2019-03-30T17:42:03.160Z,22.47
2019-03-30T17:44:34.636Z,21.47
2019-03-30T17:47:05.874Z,22.50
2019-03-30T17:49:37.067Z,21.57
2019-03-30T17:52:08.491Z,22.33
2019-03-30T17:54:40.087Z,22.07
2019-03-30T17:57:11.574Z,21.03
2019-03-30T17:59:42.695Z,21.17
2019-03-30T18:02:13.908Z,21.30
2019-03-30T18:04:44.974Z,21.20
2019-03-30T18:07:16.235Z,22.23
2019-03-30T18:09:47.419Z,21.33
2019-03-30T18:12:20.439Z,23.13
2019-03-30T18:14:51.928Z,22.67
2019-03-30T18:17:23.224Z,21.20
2019-03-30T18:19:56.154Z,20.83
2019-03-30T18:22:27.485Z,22.23
2019-03-30T18:24:58.683Z,23.57
2019-03-30T18:27:30.025Z,22.73
2019-03-30T18:30:04.699Z,24.17
2019-03-30T18:32:36.495Z,26.10
2019-03-30T18:35:13.034Z,26.30
2019-03-30T18:37:57.430Z,28.43
2019-03-30T18:40:32.755Z,29.77
2019-03-30T18:43:07.034Z,31.80
2019-03-30T18:45:38.620Z,34.47
2019-03-30T18:48:19.686Z,34.40
2019-03-30T18:50:53.974Z,35.53
2019-03-30T18:53:27.679Z,33.30
2019-03-30T18:55:59.062Z,32.90
2019-03-30T18:58:41.599Z,31.83
2019-03-30T19:01:06.370Z,32.77
2019-03-30T19:03:41.836Z,31.90
2019-03-30T19:06:22.931Z,33.30
2019-03-30T19:08:55.448Z,32.57
2019-03-30T19:11:28.939Z,33.47
2019-03-30T19:14:02.477Z,33.20
2019-03-30T19:16:33.800Z,32.53
2019-03-30T19:19:05.540Z,31.83
2019-03-30T19:21:37.159Z,30.63
2019-03-30T19:24:09.565Z,30.03
2019-03-30T19:26:48.245Z,30.27
2019-03-30T19:29:19.545Z,29.87
2019-03-30T19:31:55.005Z,29.70
2019-03-30T19:34:26.462Z,29.03
2019-03-30T19:37:01.358Z,29.93
2019-03-30T19:39:33.157Z,30.07
2019-03-30T19:42:05.694Z,81.10
2019-03-30T19:44:48.735Z,41.40
2019-03-30T19:47:22.474Z,32.27
2019-03-30T19:49:58.580Z,31.00
2019-03-30T19:52:39.863Z,28.13
2019-03-30T19:55:05.159Z,28.67
2019-03-30T19:57:44.644Z,30.67
2019-03-30T20:00:22.640Z,34.07
2019-03-30T20:02:58.529Z,35.07
2019-03-30T20:05:33.485Z,34.63
2019-03-30T20:08:13.113Z,38.30
2019-03-30T20:10:56.319Z,39.63
2019-03-30T20:13:30.345Z,40.37
2019-03-30T20:16:04.539Z,39.03
2019-03-30T20:18:37.134Z,38.93
2019-03-30T20:21:18.239Z,42.43
2019-03-30T20:23:50.865Z,42.23
2019-03-30T20:26:23.813Z,42.57
2019-03-30T20:29:01.968Z,43.63
2019-03-30T20:31:38.154Z,43.60
2019-03-30T20:34:10.237Z,42.20
2019-03-30T20:36:44.039Z,43.67
2019-03-30T20:39:16.384Z,44.73
2019-03-30T20:41:49.769Z,43.93
2019-03-30T20:44:27.144Z,44.27
2019-03-30T20:47:02.176Z,45.07
2019-03-30T20:49:37.036Z,53.03
2019-03-30T20:52:23.229Z,45.97
2019-03-30T20:54:55.100Z,52.37
2019-03-30T20:57:27.308Z,52.60
2019-03-30T21:00:02.804Z,53.43
2019-03-30T21:02:41.175Z,53.37
2019-03-30T21:05:18.016Z,53.97
2019-03-30T21:07:50.574Z,58.73
2019-03-30T21:10:25.357Z,61.63
2019-03-30T21:12:56.614Z,61.97
2019-03-30T21:15:27.979Z,62.13
2019-03-30T21:18:09.258Z,65.63
2019-03-30T21:20:47.458Z,61.63
2019-03-30T21:23:20.319Z,60.73
2019-03-30T21:25:55.454Z,59.57
2019-03-30T21:28:29.397Z,62.23
2019-03-30T21:31:01.189Z,59.80
2019-03-30T21:33:38.619Z,60.27
2019-03-30T21:36:09.854Z,56.90
2019-03-30T21:38:47.379Z,54.40
2019-03-30T21:41:21.324Z,53.53
2019-03-30T21:43:55.654Z,50.43
2019-03-30T21:46:28.604Z,48.53
2019-03-30T21:48:59.850Z,46.17
2019-03-30T21:51:31.070Z,45.83
2019-03-30T21:54:02.391Z,44.53
2019-03-30T21:56:35.098Z,45.07
2019-03-30T21:59:06.494Z,43.93
2019-03-30T22:01:37.669Z,43.03
2019-03-30T22:04:08.951Z,43.30
2019-03-30T22:06:40.229Z,40.70
2019-03-30T22:09:12.219Z,40.10
2019-03-30T22:11:43.386Z,40.63
2019-03-30T22:14:14.718Z,40.57
2019-03-30T22:16:46.014Z,39.30
2019-03-30T22:19:17.208Z,40.57
2019-03-30T22:21:48.432Z,40.00
2019-03-30T22:24:19.595Z,39.47
2019-03-30T22:26:50.814Z,37.23
2019-03-30T22:29:22.065Z,36.47
2019-03-30T22:31:53.198Z,35.07
2019-03-30T22:34:24.488Z,33.80
2019-03-30T22:36:55.605Z,32.90
2019-03-30T22:39:26.963Z,31.43
2019-03-30T22:41:58.178Z,31.77
2019-03-30T22:44:29.438Z,30.50
2019-03-30T22:47:00.533Z,29.30
2019-03-30T22:49:31.651Z,31.77
2019-03-30T22:52:02.829Z,31.23
2019-03-30T22:54:33.990Z,30.53
2019-03-30T22:57:05.338Z,32.27
2019-03-30T22:59:36.549Z,32.37
2019-03-30T23:02:08.264Z,33.50
2019-03-30T23:04:39.828Z,34.90
2019-03-30T23:07:11.080Z,36.17
2019-03-30T23:09:42.302Z,33.93
2019-03-30T23:12:13.564Z,36.10
2019-03-30T23:14:44.801Z,35.93
2019-03-30T23:17:16.058Z,36.00
2019-03-30T23:19:47.285Z,34.33
2019-03-30T23:22:18.635Z,35.57
2019-03-30T23:24:49.774Z,34.33
2019-03-30T23:27:20.910Z,33.63
2019-03-30T23:29:52.114Z,35.33
2019-03-30T23:32:23.320Z,34.90
2019-03-30T23:34:54.520Z,34.93
2019-03-30T23:37:25.805Z,36.93
2019-03-30T23:39:57.184Z,36.77
2019-03-30T23:42:28.396Z,36.63
2019-03-30T23:44:59.638Z,39.40
2019-03-30T23:47:30.863Z,39.53
2019-03-30T23:50:01.919Z,39.93
2019-03-30T23:52:33.074Z,39.93
2019-03-30T23:55:04.329Z,40.60
2019-03-30T23:57:35.588Z,39.90
